createdAt,value
2023-03-05T00:01:47.816Z,7.97
2023-03-05T00:04:19.724Z,8.52
2023-03-05T00:06:49.340Z,5.90
2023-03-05T00:09:18.845Z,7.45
2023-03-05T00:11:50.624Z,8.70
2023-03-05T00:14:20.890Z,6.28
2023-03-05T00:16:51.927Z,7.78
2023-03-05T00:19:21.297Z,7.43
2023-03-05T00:21:52.488Z,6.13
2023-03-05T00:24:21.652Z,5.95
2023-03-05T00:29:23.001Z,6.35
2023-03-05T00:31:53.896Z,7.10
2023-03-05T00:34:25.868Z,7.22
2023-03-05T00:36:55.889Z,6.57
2023-03-05T00:41:56.849Z,5.82
2023-03-05T00:44:29.918Z,5.72
2023-03-05T00:47:00.408Z,7.03
2023-03-05T00:49:30.751Z,6.28
2023-03-05T00:52:02.033Z,7.32
2023-03-05T00:54:32.115Z,6.97
2023-03-05T00:57:01.866Z,6.47
2023-03-05T00:59:33.890Z,6.07
2023-03-05T01:02:03.598Z,6.72
2023-03-05T01:04:32.742Z,7.07
2023-03-05T01:07:04.527Z,6.80
2023-03-05T01:09:35.020Z,7.13
2023-03-05T01:12:07.103Z,7.53
2023-03-05T01:14:37.517Z,5.70
2023-03-05T01:17:11.414Z,6.75
2023-03-05T01:19:41.240Z,4.30
2023-03-05T01:22:11.280Z,6.88
2023-03-05T01:24:43.556Z,7.18
2023-03-05T01:27:15.578Z,6.00
2023-03-05T01:29:48.174Z,6.97
2023-03-05T01:32:20.146Z,5.53
2023-03-05T01:34:52.886Z,6.63
2023-03-05T01:37:23.173Z,6.05
2023-03-05T01:39:57.800Z,6.88
2023-03-05T01:42:30.370Z,6.40
2023-03-05T01:45:10.220Z,5.35
2023-03-05T01:47:40.695Z,7.60
2023-03-05T01:50:12.684Z,5.88
2023-03-05T01:52:47.782Z,6.15
2023-03-05T01:55:24.281Z,6.15
2023-03-05T01:58:00.705Z,6.32
2023-03-05T02:00:38.795Z,6.03
2023-03-05T02:03:13.500Z,6.55
2023-03-05T02:05:46.260Z,6.57
2023-03-05T02:08:22.380Z,6.93
2023-03-05T02:10:56.637Z,5.25
2023-03-05T02:13:33.132Z,6.15
2023-03-05T02:16:07.070Z,6.78
2023-03-05T02:18:35.505Z,5.53
2023-03-05T02:21:07.382Z,6.53
2023-03-05T02:23:37.728Z,7.22
2023-03-05T02:26:09.724Z,5.70
2023-03-05T02:28:41.365Z,6.03
2023-03-05T02:31:11.767Z,5.13
2023-03-05T02:33:51.214Z,4.65
2023-03-05T02:36:23.594Z,6.95
2023-03-05T02:38:52.853Z,5.13
2023-03-05T02:43:51.757Z,5.68
2023-03-05T02:46:23.039Z,6.07
2023-03-05T02:48:51.235Z,5.28
2023-03-05T02:51:23.246Z,5.80
2023-03-05T02:53:51.900Z,7.72
2023-03-05T02:56:20.488Z,5.53
2023-03-05T02:58:49.098Z,5.95
2023-03-05T03:01:17.253Z,6.50
2023-03-05T03:03:47.741Z,5.55
2023-03-05T03:06:16.128Z,5.50
2023-03-05T03:08:46.915Z,6.38
2023-03-05T03:11:16.206Z,7.07
2023-03-05T03:13:44.632Z,5.60
2023-03-05T03:16:15.303Z,5.70
2023-03-05T03:18:44.042Z,6.35
2023-03-05T03:21:18.801Z,6.38
2023-03-05T03:23:48.680Z,7.30
2023-03-05T03:26:17.455Z,6.10
2023-03-05T03:28:46.251Z,7.35
2023-03-05T03:31:14.758Z,6.68
2023-03-05T03:33:55.189Z,7.82
2023-03-05T03:36:23.445Z,7.53
2023-03-05T03:38:53.295Z,7.32
2023-03-05T03:41:21.407Z,7.32
2023-03-05T03:43:50.073Z,8.45
2023-03-05T03:46:18.184Z,6.78
2023-03-05T03:48:46.963Z,5.60
2023-03-05T03:51:15.532Z,6.05
2023-03-05T03:53:43.846Z,5.22
2023-03-05T03:56:13.962Z,6.70
2023-03-05T03:58:42.354Z,6.15
2023-03-05T04:01:10.451Z,6.90
2023-03-05T04:03:40.128Z,8.25
2023-03-05T04:06:08.746Z,6.95
2023-03-05T04:08:40.302Z,6.05
2023-03-05T04:11:08.416Z,4.65
2023-03-05T04:13:38.114Z,7.07
2023-03-05T04:16:08.521Z,6.95
2023-03-05T04:18:36.885Z,7.28
2023-03-05T04:21:05.756Z,6.75
2023-03-05T04:23:37.089Z,5.80
2023-03-05T04:26:07.342Z,6.45
2023-03-05T04:28:35.762Z,5.97
2023-03-05T04:31:06.332Z,6.85
2023-03-05T04:33:35.952Z,6.57
2023-03-05T04:36:04.584Z,8.07
2023-03-05T04:38:33.092Z,7.47
2023-03-05T04:41:01.441Z,6.78
2023-03-05T04:43:29.798Z,7.00
2023-03-05T04:45:58.057Z,7.28
2023-03-05T04:48:27.916Z,6.30
2023-03-05T04:53:26.262Z,5.53
2023-03-05T04:55:54.869Z,6.30
2023-03-05T04:58:24.053Z,5.65
2023-03-05T05:00:52.472Z,5.97
2023-03-05T05:03:20.690Z,6.70
2023-03-05T05:05:57.457Z,6.65
2023-03-05T05:08:26.802Z,7.72
2023-03-05T05:11:00.236Z,7.25
2023-03-05T05:13:29.170Z,8.10
2023-03-05T05:16:00.457Z,7.47
2023-03-05T05:18:28.721Z,6.25
2023-03-05T05:21:02.577Z,5.93
2023-03-05T05:23:30.746Z,5.93
2023-03-05T05:26:04.669Z,7.28
2023-03-05T05:28:33.732Z,7.32
2023-03-05T05:31:08.230Z,7.95
2023-03-05T05:33:36.837Z,5.30
2023-03-05T05:36:09.634Z,6.05
2023-03-05T05:38:38.367Z,5.90
2023-03-05T05:41:08.190Z,5.65
2023-03-05T05:46:06.805Z,6.45
2023-03-05T05:48:37.935Z,8.25
2023-03-05T05:51:09.985Z,6.63
2023-03-05T05:53:40.680Z,5.80
2023-03-05T05:56:11.497Z,5.75
2023-03-05T05:58:41.142Z,6.07
2023-03-05T06:01:18.209Z,5.35
2023-03-05T06:03:47.905Z,7.30
2023-03-05T06:08:47.908Z,5.68
2023-03-05T06:11:18.935Z,6.30
2023-03-05T06:13:48.173Z,5.40
2023-03-05T06:16:19.005Z,6.47
2023-03-05T06:18:47.333Z,6.85
2023-03-05T06:21:19.130Z,5.25
2023-03-05T06:23:48.417Z,6.93
2023-03-05T06:26:19.154Z,6.85
2023-03-05T06:28:47.945Z,6.82
2023-03-05T06:31:18.595Z,5.90
2023-03-05T06:33:48.260Z,6.60
2023-03-05T06:36:20.697Z,6.25
2023-03-05T06:38:52.760Z,7.03
2023-03-05T06:41:24.854Z,7.90
2023-03-05T06:43:53.478Z,5.85
2023-03-05T06:46:24.079Z,6.63
2023-03-05T06:48:55.882Z,6.50
2023-03-05T06:51:27.912Z,4.78
2023-03-05T06:53:57.961Z,5.53
2023-03-05T06:56:26.580Z,7.88
2023-03-05T06:58:57.419Z,5.38
2023-03-05T07:01:25.839Z,7.25
2023-03-05T07:03:58.809Z,6.15
2023-03-05T07:06:29.024Z,5.38
2023-03-05T07:08:58.103Z,6.43
2023-03-05T07:11:28.266Z,5.30
2023-03-05T07:13:56.691Z,5.33
2023-03-05T07:16:27.179Z,6.60
2023-03-05T07:18:57.533Z,6.78
2023-03-05T07:21:29.545Z,6.30
2023-03-05T07:23:59.804Z,5.53
2023-03-05T07:26:33.283Z,7.43
2023-03-05T07:29:03.136Z,5.95
2023-03-05T07:31:32.500Z,6.35
2023-03-05T07:34:02.758Z,7.45
2023-03-05T07:36:35.126Z,5.13
2023-03-05T07:39:04.973Z,6.15
2023-03-05T07:41:33.989Z,6.63
2023-03-05T07:44:02.127Z,6.07
2023-03-05T07:46:33.595Z,6.10
2023-03-05T07:49:04.284Z,6.47
2023-03-05T07:51:34.548Z,7.22
2023-03-05T07:54:03.381Z,5.35
2023-03-05T07:56:36.822Z,5.78
2023-03-05T07:59:08.650Z,6.25
2023-03-05T08:01:39.051Z,5.95
2023-03-05T08:04:11.482Z,4.53
2023-03-05T08:06:42.801Z,5.43
2023-03-05T08:09:10.989Z,6.50
2023-03-05T08:11:40.420Z,5.28
2023-03-05T08:14:08.820Z,5.05
2023-03-05T08:16:37.277Z,4.97
2023-03-05T08:19:05.886Z,5.68
2023-03-05T08:21:36.528Z,4.60
2023-03-05T08:24:09.968Z,4.20
2023-03-05T08:26:39.493Z,4.30
2023-03-05T08:29:09.088Z,4.53
2023-03-05T08:31:39.977Z,4.93
2023-03-05T08:34:10.920Z,3.38
2023-03-05T08:36:40.170Z,5.15
2023-03-05T08:39:11.331Z,3.83
2023-03-05T08:41:40.054Z,4.15
2023-03-05T08:44:08.464Z,4.60
2023-03-05T08:46:37.138Z,4.65
2023-03-05T08:49:07.538Z,4.20
2023-03-05T08:51:36.907Z,3.72
2023-03-05T08:54:07.178Z,5.18
2023-03-05T08:56:36.838Z,4.47
2023-03-05T08:59:06.520Z,3.35
2023-03-05T09:04:04.984Z,3.47
2023-03-05T09:09:03.143Z,3.50
2023-03-05T09:11:31.441Z,3.67
2023-03-05T09:14:02.264Z,3.30
2023-03-05T09:16:32.040Z,3.63
2023-03-05T09:19:02.837Z,3.75
2023-03-05T09:21:32.600Z,3.58
2023-03-05T09:24:03.447Z,2.83
2023-03-05T09:26:32.085Z,3.13
2023-03-05T09:29:04.660Z,2.67
2023-03-05T09:31:34.518Z,2.80
2023-03-05T09:34:03.309Z,2.95
2023-03-05T09:36:33.539Z,2.78
2023-03-05T09:39:04.055Z,1.75
2023-03-05T09:41:39.850Z,2.20
2023-03-05T09:44:25.880Z,2.22
2023-03-05T09:46:56.106Z,2.50
2023-03-05T09:49:35.062Z,2.00
2023-03-05T09:52:14.696Z,2.38
2023-03-05T09:54:46.510Z,2.35
2023-03-05T09:57:18.580Z,2.25
2023-03-05T09:59:52.013Z,2.78
2023-03-05T10:02:27.411Z,1.90
2023-03-05T10:05:04.375Z,2.08
2023-03-05T10:07:35.555Z,2.20
2023-03-05T10:10:07.060Z,2.78
2023-03-05T10:12:42.705Z,2.65
2023-03-05T10:15:33.020Z,2.40
2023-03-05T10:18:15.435Z,2.42
2023-03-05T10:20:59.082Z,1.52
2023-03-05T10:23:33.679Z,2.08
2023-03-05T10:26:14.523Z,2.25
2023-03-05T10:28:48.708Z,2.60
2023-03-05T10:31:35.241Z,2.45
2023-03-05T10:34:22.694Z,1.90
2023-03-05T10:37:07.304Z,1.98
2023-03-05T10:39:51.166Z,2.17
2023-03-05T10:42:31.191Z,1.95
2023-03-05T10:45:01.553Z,2.25
2023-03-05T10:47:38.655Z,1.55
2023-03-05T10:50:18.835Z,1.95
2023-03-05T10:52:51.782Z,2.13
2023-03-05T10:55:23.986Z,2.30
2023-03-05T10:57:53.020Z,2.25
2023-03-05T11:00:24.763Z,1.75
2023-03-05T11:03:03.761Z,2.08
2023-03-05T11:05:41.279Z,2.43
2023-03-05T11:08:31.470Z,2.00
2023-03-05T11:11:21.757Z,2.22
2023-03-05T11:13:56.140Z,1.65
2023-03-05T11:16:27.258Z,1.92
2023-03-05T11:19:22.631Z,1.85
2023-03-05T11:22:08.574Z,1.50
2023-03-05T11:24:37.625Z,2.55
2023-03-05T11:27:25.190Z,2.65
2023-03-05T11:29:53.603Z,1.85
2023-03-05T11:32:25.124Z,1.70
2023-03-05T11:34:56.527Z,2.35
2023-03-05T11:37:26.868Z,1.65
2023-03-05T11:40:19.437Z,2.35
2023-03-05T11:42:55.450Z,1.90
2023-03-05T11:45:26.504Z,1.67
2023-03-05T11:47:57.418Z,2.33
2023-03-05T11:50:29.681Z,2.25
2023-03-05T11:53:00.572Z,2.88
2023-03-05T11:55:34.467Z,1.70
2023-03-05T11:58:18.902Z,1.45
2023-03-05T12:00:51.861Z,1.80
2023-03-05T12:03:23.927Z,1.45
2023-03-05T12:05:58.971Z,1.95
2023-03-05T12:08:33.814Z,1.67
2023-03-05T12:11:08.662Z,1.63
2023-03-05T12:13:43.213Z,2.03
2023-03-05T12:16:30.026Z,1.15
2023-03-05T12:19:23.138Z,1.88
2023-03-05T12:21:53.690Z,1.48
2023-03-05T12:24:40.713Z,1.83
2023-03-05T12:27:15.893Z,1.55
2023-03-05T12:29:47.934Z,1.98
2023-03-05T12:33:03.361Z,2.30
2023-03-05T12:35:38.619Z,1.98
2023-03-05T12:38:27.402Z,1.80
2023-03-05T12:41:39.839Z,1.58
2023-03-05T12:44:26.053Z,1.30
2023-03-05T12:47:23.949Z,1.38
2023-03-05T12:49:52.490Z,1.92
2023-03-05T12:52:32.124Z,1.17
2023-03-05T12:55:20.221Z,1.40
2023-03-05T12:57:58.019Z,1.15
2023-03-05T13:00:33.884Z,1.48
2023-03-05T13:03:06.177Z,1.63
2023-03-05T13:05:38.577Z,0.85
2023-03-05T13:08:20.323Z,1.65
2023-03-05T13:10:55.121Z,1.17
2023-03-05T13:13:25.591Z,1.52
2023-03-05T13:15:54.332Z,1.08
2023-03-05T13:18:26.210Z,1.70
2023-03-05T13:21:04.478Z,1.90
2023-03-05T13:23:34.574Z,1.23
2023-03-05T13:26:20.181Z,1.42
2023-03-05T13:29:12.049Z,1.55
2023-03-05T13:31:47.424Z,1.13
2023-03-05T13:34:20.554Z,1.85
2023-03-05T13:36:55.181Z,1.83
2023-03-05T13:39:28.673Z,1.00
2023-03-05T13:42:00.692Z,1.52
2023-03-05T13:44:29.593Z,1.63
2023-03-05T13:47:09.059Z,1.17
2023-03-05T13:52:06.763Z,1.25
2023-03-05T13:54:36.589Z,1.50
2023-03-05T13:59:39.004Z,1.52
2023-03-05T14:02:18.337Z,2.10
2023-03-05T14:04:48.621Z,1.05
2023-03-05T14:07:39.367Z,1.17
2023-03-05T14:10:30.800Z,1.55
2023-03-05T14:13:04.638Z,1.88
2023-03-05T14:15:36.222Z,1.58
2023-03-05T14:18:19.793Z,2.47
2023-03-05T14:21:03.895Z,1.73
2023-03-05T14:23:41.020Z,2.22
2023-03-05T14:26:23.650Z,1.83
2023-03-05T14:28:55.666Z,1.50
2023-03-05T14:31:27.209Z,2.00
2023-03-05T14:34:03.268Z,2.40
2023-03-05T14:36:32.854Z,1.65
2023-03-05T14:39:02.439Z,1.40
2023-03-05T14:41:38.206Z,1.83
2023-03-05T14:44:17.161Z,1.83
2023-03-05T14:46:50.583Z,1.90
2023-03-05T14:49:19.130Z,1.42
2023-03-05T14:51:48.240Z,2.08
2023-03-05T14:54:22.475Z,3.00
2023-03-05T14:56:51.057Z,2.40
2023-03-05T14:59:22.401Z,1.92
2023-03-05T15:01:51.898Z,2.90
2023-03-05T15:04:21.250Z,1.48
2023-03-05T15:06:51.468Z,1.95
2023-03-05T15:09:21.196Z,1.98
2023-03-05T15:11:50.898Z,2.33
2023-03-05T15:14:20.948Z,2.03
2023-03-05T15:16:49.402Z,1.77
2023-03-05T15:19:19.417Z,1.60
2023-03-05T15:21:48.224Z,2.80
2023-03-05T15:24:17.080Z,1.67
2023-03-05T15:26:45.238Z,1.17
2023-03-05T15:29:16.397Z,2.20
2023-03-05T15:31:46.453Z,1.65
2023-03-05T15:34:15.292Z,1.83
2023-03-05T15:36:43.948Z,1.92
2023-03-05T15:39:12.351Z,1.57
2023-03-05T15:41:40.926Z,1.45
2023-03-05T15:44:09.055Z,1.27
2023-03-05T15:46:37.685Z,1.92
2023-03-05T15:49:07.263Z,1.60
2023-03-05T15:51:35.632Z,1.45
2023-03-05T15:54:04.040Z,1.92
2023-03-05T15:56:33.873Z,1.80
2023-03-05T15:59:02.174Z,1.63
2023-03-05T16:01:30.375Z,1.83
2023-03-05T16:03:59.057Z,1.92
2023-03-05T16:06:29.433Z,1.67
2023-03-05T16:09:01.867Z,1.60
2023-03-05T16:11:32.156Z,1.77
2023-03-05T16:14:02.147Z,1.70
2023-03-05T16:16:32.213Z,1.88
2023-03-05T16:19:00.801Z,2.58
2023-03-05T16:21:31.430Z,1.92
2023-03-05T16:24:00.622Z,1.42
2023-03-05T16:26:29.538Z,2.15
2023-03-05T16:28:58.344Z,1.60
2023-03-05T16:31:31.022Z,1.48
2023-03-05T16:34:00.874Z,1.55
2023-03-05T16:36:35.149Z,1.40
2023-03-05T16:39:05.390Z,1.52
2023-03-05T16:41:34.343Z,2.50
2023-03-05T16:44:04.781Z,1.83
2023-03-05T16:46:35.080Z,1.90
2023-03-05T16:49:04.401Z,1.42
2023-03-05T16:51:34.127Z,1.80
2023-03-05T16:56:30.604Z,1.83
2023-03-05T16:58:58.736Z,2.10
2023-03-05T17:01:30.230Z,3.50
2023-03-05T17:03:59.493Z,1.90
2023-03-05T17:06:30.038Z,1.83
2023-03-05T17:09:00.175Z,2.03
2023-03-05T17:11:28.812Z,2.17
2023-03-05T17:13:57.280Z,2.53
2023-03-05T17:16:25.617Z,1.88
2023-03-05T17:18:56.624Z,2.70
2023-03-05T17:21:25.126Z,3.15
2023-03-05T17:23:53.384Z,2.80
2023-03-05T17:26:23.431Z,1.90
2023-03-05T17:28:53.569Z,1.73
2023-03-05T17:31:23.200Z,2.28
2023-03-05T17:33:55.291Z,2.03
2023-03-05T17:36:24.638Z,1.67
2023-03-05T17:38:54.238Z,2.00
2023-03-05T17:41:24.019Z,2.03
2023-03-05T17:43:52.603Z,2.53
2023-03-05T17:46:20.990Z,2.10
2023-03-05T17:48:53.517Z,2.30
2023-03-05T17:51:22.089Z,1.77
2023-03-05T17:53:52.644Z,1.73
2023-03-05T17:56:22.175Z,3.15
2023-03-05T17:58:52.032Z,2.08
2023-03-05T18:01:27.944Z,2.05
2023-03-05T18:03:56.747Z,2.00
2023-03-05T18:06:25.610Z,2.53
2023-03-05T18:08:54.262Z,2.20
2023-03-05T18:11:22.723Z,2.08
2023-03-05T18:13:52.380Z,2.22
2023-03-05T18:16:23.799Z,2.53
2023-03-05T18:18:52.844Z,2.33
2023-03-05T18:21:22.072Z,2.75
2023-03-05T18:23:51.181Z,2.75
2023-03-05T18:26:20.869Z,3.17
2023-03-05T18:28:50.853Z,2.80
2023-03-05T18:31:20.697Z,2.88
2023-03-05T18:38:47.562Z,2.63
2023-03-05T18:41:21.977Z,2.80
2023-03-05T18:43:50.515Z,2.92
2023-03-05T18:46:20.641Z,3.33
2023-03-05T18:48:48.963Z,3.05
2023-03-05T18:51:19.540Z,3.50
2023-03-05T18:53:47.680Z,3.67
2023-03-05T18:56:16.296Z,3.33
2023-03-05T18:58:45.124Z,3.97
2023-03-05T19:01:13.300Z,3.43
2023-03-05T19:03:43.030Z,3.38
2023-03-05T19:06:11.946Z,3.35
2023-03-05T19:08:40.745Z,2.97
2023-03-05T19:11:16.849Z,2.47
2023-03-05T19:13:49.076Z,3.15
2023-03-05T19:16:19.716Z,3.85
2023-03-05T19:19:02.182Z,3.20
2023-03-05T19:21:31.212Z,4.03
2023-03-05T19:24:00.300Z,3.60
2023-03-05T19:26:29.044Z,3.47
2023-03-05T19:28:58.009Z,2.88
2023-03-05T19:31:31.341Z,2.83
2023-03-05T19:34:03.698Z,3.53
2023-03-05T19:36:34.367Z,3.05
2023-03-05T19:39:04.941Z,4.10
2023-03-05T19:41:34.953Z,4.03
2023-03-05T19:44:05.508Z,3.25
2023-03-05T19:46:35.381Z,3.85
2023-03-05T19:49:07.683Z,3.38
2023-03-05T19:51:36.759Z,3.20
2023-03-05T19:54:09.643Z,3.38
2023-03-05T19:56:38.983Z,3.00
2023-03-05T19:59:09.098Z,4.00
2023-03-05T20:01:38.288Z,3.97
2023-03-05T20:04:07.828Z,3.13
2023-03-05T20:06:36.317Z,2.50
2023-03-05T20:09:07.574Z,3.22
2023-03-05T20:11:36.887Z,3.10
2023-03-05T20:14:05.362Z,3.10
2023-03-05T20:16:36.664Z,3.08
2023-03-05T20:19:08.210Z,3.50
2023-03-05T20:21:40.165Z,3.80
2023-03-05T20:24:11.910Z,3.30
2023-03-05T20:26:41.777Z,3.05
2023-03-05T20:29:16.929Z,3.30
2023-03-05T20:31:46.342Z,3.40
2023-03-05T20:34:19.478Z,3.53
2023-03-05T20:36:47.986Z,2.58
2023-03-05T20:39:16.328Z,2.45
2023-03-05T20:41:45.128Z,4.07
2023-03-05T20:44:14.169Z,2.63
2023-03-05T20:46:52.162Z,3.30
2023-03-05T20:49:21.781Z,3.53
2023-03-05T20:51:51.724Z,3.05
2023-03-05T20:54:19.925Z,3.55
2023-03-05T20:56:49.161Z,2.72
2023-03-05T20:59:17.635Z,4.05
2023-03-05T21:01:45.819Z,2.95
2023-03-05T21:04:14.475Z,2.63
2023-03-05T21:06:48.982Z,4.00
2023-03-05T21:09:17.292Z,2.97
2023-03-05T21:11:45.759Z,3.20
2023-03-05T21:14:15.054Z,2.65
2023-03-05T21:16:43.634Z,3.00
2023-03-05T21:19:12.015Z,3.08
2023-03-05T21:21:44.807Z,3.83
2023-03-05T21:24:17.905Z,3.75
2023-03-05T21:26:46.395Z,4.32
2023-03-05T21:29:14.806Z,3.45
2023-03-05T21:31:45.187Z,3.33
2023-03-05T21:34:14.639Z,2.60
2023-03-05T21:36:42.997Z,2.75
2023-03-05T21:39:12.298Z,2.97
2023-03-05T21:41:41.763Z,2.75
2023-03-05T21:44:11.760Z,2.28
2023-03-05T21:46:42.761Z,2.70
2023-03-05T21:49:11.003Z,2.58
2023-03-05T21:51:51.053Z,2.72
2023-03-05T21:54:19.771Z,2.55
2023-03-05T21:56:49.647Z,2.33
2023-03-05T21:59:17.828Z,2.55
2023-03-05T22:01:46.528Z,2.40
2023-03-05T22:04:15.032Z,2.78
2023-03-05T22:06:43.445Z,2.78
2023-03-05T22:09:12.699Z,3.13
2023-03-05T22:11:43.655Z,3.00
2023-03-05T22:14:15.608Z,2.50
2023-03-05T22:16:45.415Z,2.15
2023-03-05T22:19:13.635Z,3.08
2023-03-05T22:21:42.110Z,3.13
2023-03-05T22:24:11.687Z,2.15
2023-03-05T22:26:42.375Z,2.72
2023-03-05T22:29:11.617Z,2.58
2023-03-05T22:31:41.808Z,4.00
2023-03-05T22:34:10.614Z,2.92
2023-03-05T22:36:39.129Z,2.72
2023-03-05T22:39:09.476Z,2.10
2023-03-05T22:41:37.576Z,2.47
2023-03-05T22:44:06.201Z,3.05
2023-03-05T22:46:34.881Z,3.20
2023-03-05T22:49:04.389Z,3.85
2023-03-05T22:51:32.930Z,3.35
2023-03-05T22:54:01.043Z,3.22
2023-03-05T22:56:29.311Z,3.55
2023-03-05T22:58:58.370Z,4.47
2023-03-05T23:01:27.637Z,3.55
2023-03-05T23:04:08.705Z,3.33
2023-03-05T23:06:39.157Z,2.80
2023-03-05T23:09:07.697Z,2.67
2023-03-05T23:11:35.739Z,2.10
2023-03-05T23:14:04.621Z,2.70
2023-03-05T23:16:33.231Z,2.03
2023-03-05T23:19:01.853Z,3.03
2023-03-05T23:21:31.058Z,2.15
2023-03-05T23:24:00.578Z,3.05
2023-03-05T23:26:28.767Z,2.15
2023-03-05T23:28:57.058Z,3.08
2023-03-05T23:31:25.779Z,2.58
2023-03-05T23:33:54.010Z,2.45
2023-03-05T23:36:25.718Z,3.15
2023-03-05T23:38:57.535Z,2.10
2023-03-05T23:41:27.665Z,3.08
2023-03-05T23:43:55.976Z,3.17
2023-03-05T23:46:24.289Z,3.13
2023-03-05T23:51:22.533Z,2.10
2023-03-05T23:53:51.290Z,3.55
2023-03-05T23:56:19.737Z,2.47
2023-03-05T23:58:50.508Z,3.10
